Flight Track Log - Related Links

Times and Time Zones

All times are in EST time to prevent confusion due to time zone crossing. See the EJA122 flight status page for this flight to view local times or setup timezone preferences in your user account.

Time Position Orientation Groundspeed Altitude Reporting Facility
EST Latitude Longitude Course Direction KTS MPH feet Rate Location/Type
Tue 04:40:24 PM 41.8969 -91.7617 35° Northeast 187 215 4,100  Level Chicago Center
Tue 04:41:26 PM 41.9447 -91.7164 35° Northeast 244 281 7,700 2,855 Climbing Chicago Center
Tue 04:42:28 PM 41.9542 -91.6131 83° East 287 330 10,000 2,613 Climbing Chicago Center
Tue 04:43:30 PM 41.9667 -91.4978 82° East 306 352 13,100 2,419 Climbing Chicago Center
Tue 04:44:32 PM 41.9792 -91.3744 82° East 324 373 15,000 919 Climbing Chicago Center
Tue 04:45:34 PM 41.9967 -91.2083 82° East 373 429 15,000  Level Chicago Center
Tue 04:46:37 PM 42.0111 -91.0650 82° East 387 445 15,000  Level Chicago Center
Tue 04:47:39 PM 42.0253 -90.9258 82° East 383 441 15,000  Level Chicago Center
Tue 04:48:41 PM 42.0394 -90.7822 82° East 388 447 15,000  Level Chicago Center
Tue 04:49:43 PM 42.0533 -90.6411 82° East 386 444 15,000  Level Chicago Center
Tue 04:50:45 PM 42.0692 -90.4750 83° East 377 434 15,000  Level Chicago Center
Tue 04:51:47 PM 42.0817 -90.3347 83° East 380 437 15,000  Level Chicago Center
Tue 04:52:49 PM 42.0956 -90.1922 82° East 386 444 15,000 -484 Level Chicago Center
Tue 04:53:51 PM 42.1086 -90.0503 83° East 385 443 14,000 -968 Descending Chicago Center
Tue 04:54:53 PM 42.1253 -89.8842 82° East 379 436 13,000 -1,500 Descending Chicago Center
Tue 04:55:55 PM 42.1433 -89.7547 79° East 362 417 10,900 -1,742 Descending Chicago Center
Tue 04:56:57 PM 42.1614 -89.6414 78° East 333 383 9,400 -1,632 Descending Chicago Center
Tue 04:58:00 PM 42.1775 -89.5447 77° East 283 326 7,500 -1,968 Descending Chicago Center
Tue 04:59:02 PM 42.1839 -89.4503 85° East 262 302 5,300 -1,839 Descending Chicago Center
Tue 05:00:04 PM 42.1794 -89.3636 94° East 248 285 3,700 -589 Descending Chicago Center
Tue 05:02:00 PM 42.1821 -89.1739 77° East  Level FlightAware Approximate
Tue 05:03:47 PM 42.1544 -89.0692 90° East 162 186 2,500  Level Chicago Center
Tue 05:04:49 PM 42.1733 -89.0036 69° East 165 190 2,400 -97 Descending Chicago Center
Tue 05:09:00 PM 42.1954 -89.0972 90° East  Level Estimated

Login

Don't have an account? Register now (free) for customized features, flight alerts, and more!